sensor_id;sensor_type;location;lat;lon;timestamp;P1;durP1;ratioP1;P2;durP2;ratioP2
24357;SDS011;13668;52.154;5.580;2022-08-21T00:00:37;8.25;;;7.30;;
24357;SDS011;13668;52.154;5.580;2022-08-21T00:03:04;9.75;;;7.50;;
24357;SDS011;13668;52.154;5.580;2022-08-21T00:05:31;9.73;;;7.13;;
24357;SDS011;13668;52.154;5.580;2022-08-21T00:07:57;10.00;;;7.65;;
24357;SDS011;13668;52.154;5.580;2022-08-21T00:10:23;9.23;;;6.75;;
24357;SDS011;13668;52.154;5.580;2022-08-21T00:12:49;8.60;;;6.50;;
24357;SDS011;13668;52.154;5.580;2022-08-21T00:15:25;8.05;;;6.88;;
24357;SDS011;13668;52.154;5.580;2022-08-21T00:17:52;8.10;;;7.30;;
24357;SDS011;13668;52.154;5.580;2022-08-21T00:20:21;8.27;;;6.60;;
24357;SDS011;13668;52.154;5.580;2022-08-21T00:22:47;7.05;;;6.35;;
24357;SDS011;13668;52.154;5.580;2022-08-21T00:25:13;7.22;;;6.50;;
24357;SDS011;13668;52.154;5.580;2022-08-21T00:27:40;9.07;;;7.10;;
24357;SDS011;13668;52.154;5.580;2022-08-21T00:30:10;7.55;;;6.82;;
24357;SDS011;13668;52.154;5.580;2022-08-21T00:32:37;7.85;;;6.47;;
24357;SDS011;13668;52.154;5.580;2022-08-21T00:35:05;10.18;;;6.78;;
24357;SDS011;13668;52.154;5.580;2022-08-21T00:37:31;8.25;;;6.20;;
24357;SDS011;13668;52.154;5.580;2022-08-21T00:39:57;7.65;;;6.75;;
24357;SDS011;13668;52.154;5.580;2022-08-21T00:42:23;7.63;;;6.70;;
24357;SDS011;13668;52.154;5.580;2022-08-21T00:44:49;8.02;;;6.10;;
24357;SDS011;13668;52.154;5.580;2022-08-21T00:47:16;8.57;;;5.95;;
24357;SDS011;13668;52.154;5.580;2022-08-21T00:49:42;6.78;;;5.88;;
24357;SDS011;13668;52.154;5.580;2022-08-21T00:52:09;7.43;;;6.35;;
24357;SDS011;13668;52.154;5.580;2022-08-21T00:54:36;8.25;;;6.22;;
24357;SDS011;13668;52.154;5.580;2022-08-21T00:57:05;7.65;;;6.82;;
24357;SDS011;13668;52.154;5.580;2022-08-21T00:59:33;10.43;;;6.82;;
24357;SDS011;13668;52.154;5.580;2022-08-21T01:02:00;7.57;;;6.57;;
24357;SDS011;13668;52.154;5.580;2022-08-21T01:04:26;6.47;;;5.88;;
24357;SDS011;13668;52.154;5.580;2022-08-21T01:06:52;7.47;;;6.47;;
24357;SDS011;13668;52.154;5.580;2022-08-21T01:09:18;9.73;;;5.82;;
24357;SDS011;13668;52.154;5.580;2022-08-21T01:11:44;7.32;;;6.63;;
24357;SDS011;13668;52.154;5.580;2022-08-21T01:14:11;8.93;;;6.57;;
24357;SDS011;13668;52.154;5.580;2022-08-21T01:16:39;6.40;;;5.72;;
24357;SDS011;13668;52.154;5.580;2022-08-21T01:19:06;6.97;;;6.00;;
24357;SDS011;13668;52.154;5.580;2022-08-21T01:21:32;6.28;;;5.28;;
24357;SDS011;13668;52.154;5.580;2022-08-21T01:23:58;7.32;;;6.40;;
24357;SDS011;13668;52.154;5.580;2022-08-21T01:26:26;7.55;;;6.28;;
24357;SDS011;13668;52.154;5.580;2022-08-21T01:28:58;8.23;;;5.57;;
24357;SDS011;13668;52.154;5.580;2022-08-21T01:31:26;6.90;;;5.50;;
24357;SDS011;13668;52.154;5.580;2022-08-21T01:33:52;7.95;;;5.40;;
24357;SDS011;13668;52.154;5.580;2022-08-21T01:36:18;8.60;;;5.80;;
24357;SDS011;13668;52.154;5.580;2022-08-21T01:38:45;8.52;;;6.32;;
24357;SDS011;13668;52.154;5.580;2022-08-21T01:41:12;8.27;;;5.95;;
24357;SDS011;13668;52.154;5.580;2022-08-21T01:43:38;7.40;;;6.70;;
24357;SDS011;13668;52.154;5.580;2022-08-21T01:46:04;9.10;;;6.63;;
24357;SDS011;13668;52.154;5.580;2022-08-21T01:48:30;10.40;;;6.80;;
24357;SDS011;13668;52.154;5.580;2022-08-21T01:50:56;6.40;;;5.68;;
24357;SDS011;13668;52.154;5.580;2022-08-21T01:53:22;7.45;;;6.25;;
24357;SDS011;13668;52.154;5.580;2022-08-21T01:55:48;8.90;;;6.30;;
24357;SDS011;13668;52.154;5.580;2022-08-21T01:58:16;7.65;;;6.53;;
24357;SDS011;13668;52.154;5.580;2022-08-21T02:00:42;9.40;;;6.03;;
24357;SDS011;13668;52.154;5.580;2022-08-21T02:03:08;7.22;;;6.53;;
24357;SDS011;13668;52.154;5.580;2022-08-21T02:05:34;10.30;;;6.68;;
24357;SDS011;13668;52.154;5.580;2022-08-21T02:08:00;8.45;;;6.20;;
24357;SDS011;13668;52.154;5.580;2022-08-21T02:10:28;7.57;;;6.38;;
24357;SDS011;13668;52.154;5.580;2022-08-21T02:12:55;8.00;;;6.72;;
24357;SDS011;13668;52.154;5.580;2022-08-21T02:15:21;9.18;;;6.78;;
24357;SDS011;13668;52.154;5.580;2022-08-21T02:17:50;10.52;;;7.40;;
24357;SDS011;13668;52.154;5.580;2022-08-21T02:20:24;7.57;;;6.18;;
24357;SDS011;13668;52.154;5.580;2022-08-21T02:22:51;7.35;;;6.53;;
24357;SDS011;13668;52.154;5.580;2022-08-21T02:25:18;9.35;;;6.85;;
24357;SDS011;13668;52.154;5.580;2022-08-21T02:27:45;8.50;;;7.55;;
24357;SDS011;13668;52.154;5.580;2022-08-21T02:30:20;12.43;;;7.70;;
24357;SDS011;13668;52.154;5.580;2022-08-21T02:32:46;8.77;;;7.68;;
24357;SDS011;13668;52.154;5.580;2022-08-21T02:35:13;10.82;;;7.78;;
24357;SDS011;13668;52.154;5.580;2022-08-21T02:37:49;8.73;;;7.65;;
24357;SDS011;13668;52.154;5.580;2022-08-21T02:40:17;9.35;;;7.57;;
24357;SDS011;13668;52.154;5.580;2022-08-21T02:42:44;10.25;;;7.15;;
24357;SDS011;13668;52.154;5.580;2022-08-21T02:45:11;9.63;;;7.25;;
24357;SDS011;13668;52.154;5.580;2022-08-21T02:47:37;10.85;;;7.93;;
24357;SDS011;13668;52.154;5.580;2022-08-21T02:50:04;8.68;;;7.65;;
24357;SDS011;13668;52.154;5.580;2022-08-21T02:52:30;14.40;;;8.60;;
24357;SDS011;13668;52.154;5.580;2022-08-21T02:54:56;8.98;;;7.50;;
24357;SDS011;13668;52.154;5.580;2022-08-21T02:57:22;12.38;;;8.27;;
24357;SDS011;13668;52.154;5.580;2022-08-21T02:59:48;11.25;;;8.25;;
24357;SDS011;13668;52.154;5.580;2022-08-21T03:02:14;8.27;;;6.93;;
24357;SDS011;13668;52.154;5.580;2022-08-21T03:04:40;13.68;;;8.25;;
24357;SDS011;13668;52.154;5.580;2022-08-21T03:07:06;10.02;;;8.15;;
24357;SDS011;13668;52.154;5.580;2022-08-21T03:09:32;12.82;;;8.32;;
24357;SDS011;13668;52.154;5.580;2022-08-21T03:11:58;11.50;;;8.65;;
24357;SDS011;13668;52.154;5.580;2022-08-21T03:14:24;12.35;;;8.15;;
24357;SDS011;13668;52.154;5.580;2022-08-21T03:16:50;13.27;;;8.27;;
24357;SDS011;13668;52.154;5.580;2022-08-21T03:19:16;9.80;;;8.60;;
24357;SDS011;13668;52.154;5.580;2022-08-21T03:21:42;11.23;;;8.07;;
24357;SDS011;13668;52.154;5.580;2022-08-21T03:24:08;9.82;;;8.15;;
24357;SDS011;13668;52.154;5.580;2022-08-21T03:26:34;9.10;;;7.57;;
24357;SDS011;13668;52.154;5.580;2022-08-21T03:29:00;10.57;;;7.55;;
24357;SDS011;13668;52.154;5.580;2022-08-21T03:31:26;12.18;;;10.02;;
24357;SDS011;13668;52.154;5.580;2022-08-21T03:33:55;11.55;;;8.35;;
24357;SDS011;13668;52.154;5.580;2022-08-21T03:36:22;12.85;;;7.95;;
24357;SDS011;13668;52.154;5.580;2022-08-21T03:38:48;13.05;;;8.25;;
24357;SDS011;13668;52.154;5.580;2022-08-21T03:41:14;10.70;;;8.52;;
24357;SDS011;13668;52.154;5.580;2022-08-21T03:43:40;9.98;;;7.90;;
24357;SDS011;13668;52.154;5.580;2022-08-21T03:46:06;11.80;;;8.93;;
24357;SDS011;13668;52.154;5.580;2022-08-21T03:48:33;9.25;;;7.70;;
24357;SDS011;13668;52.154;5.580;2022-08-21T03:50:59;12.18;;;8.77;;
24357;SDS011;13668;52.154;5.580;2022-08-21T03:53:25;13.80;;;8.63;;
24357;SDS011;13668;52.154;5.580;2022-08-21T03:55:51;10.95;;;7.93;;
24357;SDS011;13668;52.154;5.580;2022-08-21T03:58:19;15.60;;;8.73;;
24357;SDS011;13668;52.154;5.580;2022-08-21T04:00:46;12.48;;;8.90;;
24357;SDS011;13668;52.154;5.580;2022-08-21T04:03:12;12.95;;;8.50;;
24357;SDS011;13668;52.154;5.580;2022-08-21T04:05:38;13.73;;;8.95;;
24357;SDS011;13668;52.154;5.580;2022-08-21T04:08:04;11.88;;;8.57;;
24357;SDS011;13668;52.154;5.580;2022-08-21T04:10:31;11.15;;;8.90;;
24357;SDS011;13668;52.154;5.580;2022-08-21T04:12:58;14.82;;;9.00;;
24357;SDS011;13668;52.154;5.580;2022-08-21T04:15:24;13.02;;;8.93;;
24357;SDS011;13668;52.154;5.580;2022-08-21T04:17:50;11.52;;;8.68;;
24357;SDS011;13668;52.154;5.580;2022-08-21T04:20:17;12.57;;;9.02;;
24357;SDS011;13668;52.154;5.580;2022-08-21T04:22:43;14.35;;;8.70;;
24357;SDS011;13668;52.154;5.580;2022-08-21T04:25:10;9.85;;;8.65;;
24357;SDS011;13668;52.154;5.580;2022-08-21T04:27:36;10.63;;;8.68;;
24357;SDS011;13668;52.154;5.580;2022-08-21T04:30:04;11.50;;;9.50;;
24357;SDS011;13668;52.154;5.580;2022-08-21T04:32:30;10.52;;;9.43;;
24357;SDS011;13668;52.154;5.580;2022-08-21T04:35:00;11.30;;;9.68;;
24357;SDS011;13668;52.154;5.580;2022-08-21T04:37:27;14.85;;;9.48;;
24357;SDS011;13668;52.154;5.580;2022-08-21T04:39:53;14.75;;;9.05;;
24357;SDS011;13668;52.154;5.580;2022-08-21T04:42:22;14.23;;;9.20;;
24357;SDS011;13668;52.154;5.580;2022-08-21T04:44:48;13.57;;;9.45;;
24357;SDS011;13668;52.154;5.580;2022-08-21T04:47:14;11.98;;;9.18;;
24357;SDS011;13668;52.154;5.580;2022-08-21T04:49:41;12.50;;;9.10;;
24357;SDS011;13668;52.154;5.580;2022-08-21T04:52:07;10.50;;;8.55;;
24357;SDS011;13668;52.154;5.580;2022-08-21T04:54:33;13.40;;;9.15;;
24357;SDS011;13668;52.154;5.580;2022-08-21T04:57:00;12.65;;;9.73;;
24357;SDS011;13668;52.154;5.580;2022-08-21T04:59:33;11.55;;;9.25;;
24357;SDS011;13668;52.154;5.580;2022-08-21T05:02:01;13.43;;;9.27;;
24357;SDS011;13668;52.154;5.580;2022-08-21T05:04:28;12.27;;;9.25;;
24357;SDS011;13668;52.154;5.580;2022-08-21T05:06:56;11.63;;;9.02;;
24357;SDS011;13668;52.154;5.580;2022-08-21T05:09:22;9.93;;;8.73;;
24357;SDS011;13668;52.154;5.580;2022-08-21T05:11:49;11.55;;;8.77;;
24357;SDS011;13668;52.154;5.580;2022-08-21T05:14:16;12.02;;;8.57;;
24357;SDS011;13668;52.154;5.580;2022-08-21T05:16:42;17.70;;;9.35;;
24357;SDS011;13668;52.154;5.580;2022-08-21T05:19:09;12.65;;;8.27;;
24357;SDS011;13668;52.154;5.580;2022-08-21T05:21:35;16.60;;;10.05;;
24357;SDS011;13668;52.154;5.580;2022-08-21T05:24:01;10.07;;;8.15;;
24357;SDS011;13668;52.154;5.580;2022-08-21T05:26:27;15.80;;;9.27;;
24357;SDS011;13668;52.154;5.580;2022-08-21T05:28:54;14.45;;;9.00;;
24357;SDS011;13668;52.154;5.580;2022-08-21T05:31:20;14.45;;;9.00;;
24357;SDS011;13668;52.154;5.580;2022-08-21T05:33:47;13.60;;;8.52;;
24357;SDS011;13668;52.154;5.580;2022-08-21T05:36:13;13.38;;;8.50;;
24357;SDS011;13668;52.154;5.580;2022-08-21T05:38:39;11.75;;;7.95;;
24357;SDS011;13668;52.154;5.580;2022-08-21T05:41:05;12.90;;;7.57;;
24357;SDS011;13668;52.154;5.580;2022-08-21T05:43:32;12.25;;;8.68;;
24357;SDS011;13668;52.154;5.580;2022-08-21T05:46:01;13.38;;;7.78;;
24357;SDS011;13668;52.154;5.580;2022-08-21T05:48:27;10.98;;;7.72;;
24357;SDS011;13668;52.154;5.580;2022-08-21T05:50:53;11.40;;;7.93;;
24357;SDS011;13668;52.154;5.580;2022-08-21T05:53:20;11.30;;;8.35;;
24357;SDS011;13668;52.154;5.580;2022-08-21T05:55:47;17.10;;;8.10;;
24357;SDS011;13668;52.154;5.580;2022-08-21T05:58:14;11.73;;;8.55;;
24357;SDS011;13668;52.154;5.580;2022-08-21T06:00:41;12.75;;;7.78;;
24357;SDS011;13668;52.154;5.580;2022-08-21T06:03:10;11.65;;;7.72;;
24357;SDS011;13668;52.154;5.580;2022-08-21T06:05:40;9.23;;;7.95;;
24357;SDS011;13668;52.154;5.580;2022-08-21T06:08:06;13.55;;;7.72;;
24357;SDS011;13668;52.154;5.580;2022-08-21T06:10:32;12.30;;;7.97;;
24357;SDS011;13668;52.154;5.580;2022-08-21T06:12:59;13.95;;;8.00;;
24357;SDS011;13668;52.154;5.580;2022-08-21T06:15:25;11.93;;;7.93;;
24357;SDS011;13668;52.154;5.580;2022-08-21T06:17:52;10.48;;;7.18;;
24357;SDS011;13668;52.154;5.580;2022-08-21T06:20:18;14.82;;;7.75;;
24357;SDS011;13668;52.154;5.580;2022-08-21T06:22:44;13.35;;;8.10;;
24357;SDS011;13668;52.154;5.580;2022-08-21T06:25:10;13.52;;;8.20;;
24357;SDS011;13668;52.154;5.580;2022-08-21T06:27:36;11.00;;;7.65;;
24357;SDS011;13668;52.154;5.580;2022-08-21T06:30:03;11.93;;;7.25;;
24357;SDS011;13668;52.154;5.580;2022-08-21T06:32:29;12.07;;;7.20;;
24357;SDS011;13668;52.154;5.580;2022-08-21T06:34:55;11.25;;;7.43;;
24357;SDS011;13668;52.154;5.580;2022-08-21T06:37:21;12.20;;;7.13;;
24357;SDS011;13668;52.154;5.580;2022-08-21T06:39:47;8.18;;;7.20;;
24357;SDS011;13668;52.154;5.580;2022-08-21T06:42:16;13.48;;;7.00;;
24357;SDS011;13668;52.154;5.580;2022-08-21T06:44:43;12.38;;;7.20;;
24357;SDS011;13668;52.154;5.580;2022-08-21T06:47:09;9.70;;;7.65;;
24357;SDS011;13668;52.154;5.580;2022-08-21T06:49:35;9.73;;;6.53;;
24357;SDS011;13668;52.154;5.580;2022-08-21T06:52:02;10.95;;;7.40;;
24357;SDS011;13668;52.154;5.580;2022-08-21T06:54:28;12.10;;;7.40;;
24357;SDS011;13668;52.154;5.580;2022-08-21T06:56:55;16.90;;;6.65;;
24357;SDS011;13668;52.154;5.580;2022-08-21T06:59:21;11.00;;;6.57;;
24357;SDS011;13668;52.154;5.580;2022-08-21T07:01:47;11.20;;;6.38;;
24357;SDS011;13668;52.154;5.580;2022-08-21T07:04:13;9.45;;;5.75;;
24357;SDS011;13668;52.154;5.580;2022-08-21T07:06:39;7.88;;;4.80;;
24357;SDS011;13668;52.154;5.580;2022-08-21T07:09:05;9.27;;;4.90;;
24357;SDS011;13668;52.154;5.580;2022-08-21T07:11:32;8.35;;;4.53;;
24357;SDS011;13668;52.154;5.580;2022-08-21T07:13:58;8.80;;;4.05;;
24357;SDS011;13668;52.154;5.580;2022-08-21T07:16:24;7.07;;;4.00;;
24357;SDS011;13668;52.154;5.580;2022-08-21T07:18:50;10.90;;;4.45;;
24357;SDS011;13668;52.154;5.580;2022-08-21T07:21:16;5.85;;;3.75;;
24357;SDS011;13668;52.154;5.580;2022-08-21T07:23:43;5.25;;;3.60;;
24357;SDS011;13668;52.154;5.580;2022-08-21T07:26:10;6.95;;;3.47;;
24357;SDS011;13668;52.154;5.580;2022-08-21T07:28:37;5.30;;;3.42;;
24357;SDS011;13668;52.154;5.580;2022-08-21T07:31:03;6.70;;;3.78;;
24357;SDS011;13668;52.154;5.580;2022-08-21T07:33:31;8.75;;;3.85;;
24357;SDS011;13668;52.154;5.580;2022-08-21T07:35:57;9.10;;;3.35;;
24357;SDS011;13668;52.154;5.580;2022-08-21T07:38:24;6.70;;;3.30;;
24357;SDS011;13668;52.154;5.580;2022-08-21T07:40:51;8.30;;;3.22;;
24357;SDS011;13668;52.154;5.580;2022-08-21T07:43:17;10.90;;;3.83;;
24357;SDS011;13668;52.154;5.580;2022-08-21T07:45:44;10.93;;;4.20;;
24357;SDS011;13668;52.154;5.580;2022-08-21T07:48:10;5.88;;;3.30;;
24357;SDS011;13668;52.154;5.580;2022-08-21T07:50:36;7.88;;;3.45;;
24357;SDS011;13668;52.154;5.580;2022-08-21T07:53:02;9.15;;;3.85;;
24357;SDS011;13668;52.154;5.580;2022-08-21T07:55:29;5.45;;;3.20;;
24357;SDS011;13668;52.154;5.580;2022-08-21T07:57:55;8.02;;;3.60;;
24357;SDS011;13668;52.154;5.580;2022-08-21T08:00:21;8.50;;;4.10;;
24357;SDS011;13668;52.154;5.580;2022-08-21T08:02:49;9.55;;;4.03;;
24357;SDS011;13668;52.154;5.580;2022-08-21T08:05:15;8.05;;;4.18;;
24357;SDS011;13668;52.154;5.580;2022-08-21T08:07:42;6.80;;;3.45;;
24357;SDS011;13668;52.154;5.580;2022-08-21T08:10:08;9.82;;;3.90;;
24357;SDS011;13668;52.154;5.580;2022-08-21T08:12:36;9.52;;;3.75;;
24357;SDS011;13668;52.154;5.580;2022-08-21T08:15:02;7.75;;;4.07;;
24357;SDS011;13668;52.154;5.580;2022-08-21T08:17:28;10.13;;;4.32;;
24357;SDS011;13668;52.154;5.580;2022-08-21T08:19:57;8.18;;;3.95;;
24357;SDS011;13668;52.154;5.580;2022-08-21T08:22:23;8.10;;;3.97;;
24357;SDS011;13668;52.154;5.580;2022-08-21T08:24:50;9.75;;;4.53;;
24357;SDS011;13668;52.154;5.580;2022-08-21T08:27:16;8.20;;;3.55;;
24357;SDS011;13668;52.154;5.580;2022-08-21T08:29:43;10.35;;;3.80;;
24357;SDS011;13668;52.154;5.580;2022-08-21T08:32:09;8.63;;;3.55;;
24357;SDS011;13668;52.154;5.580;2022-08-21T08:34:36;8.57;;;3.50;;
24357;SDS011;13668;52.154;5.580;2022-08-21T08:37:03;9.55;;;3.47;;
24357;SDS011;13668;52.154;5.580;2022-08-21T08:39:29;8.00;;;4.47;;
24357;SDS011;13668;52.154;5.580;2022-08-21T08:42:01;9.45;;;4.00;;
24357;SDS011;13668;52.154;5.580;2022-08-21T08:44:30;8.85;;;3.53;;
24357;SDS011;13668;52.154;5.580;2022-08-21T08:46:56;9.15;;;3.85;;
24357;SDS011;13668;52.154;5.580;2022-08-21T08:49:24;10.15;;;3.78;;
24357;SDS011;13668;52.154;5.580;2022-08-21T08:52:03;9.73;;;3.60;;
24357;SDS011;13668;52.154;5.580;2022-08-21T08:54:32;9.30;;;3.75;;
24357;SDS011;13668;52.154;5.580;2022-08-21T08:57:00;5.18;;;2.75;;
24357;SDS011;13668;52.154;5.580;2022-08-21T08:59:27;8.20;;;3.45;;
24357;SDS011;13668;52.154;5.580;2022-08-21T09:01:59;8.45;;;2.75;;
24357;SDS011;13668;52.154;5.580;2022-08-21T09:04:26;5.63;;;2.70;;
24357;SDS011;13668;52.154;5.580;2022-08-21T09:07:15;8.15;;;2.70;;
24357;SDS011;13668;52.154;5.580;2022-08-21T09:09:51;6.90;;;2.20;;
24357;SDS011;13668;52.154;5.580;2022-08-21T09:12:38;7.78;;;2.30;;
24357;SDS011;13668;52.154;5.580;2022-08-21T09:22:50;4.10;;;2.10;;
24357;SDS011;13668;52.154;5.580;2022-08-21T09:25:20;5.47;;;2.20;;
24357;SDS011;13668;52.154;5.580;2022-08-21T09:27:46;9.20;;;2.40;;
24357;SDS011;13668;52.154;5.580;2022-08-21T09:30:12;7.18;;;2.08;;
24357;SDS011;13668;52.154;5.580;2022-08-21T09:32:38;5.53;;;2.42;;
24357;SDS011;13668;52.154;5.580;2022-08-21T09:35:15;8.60;;;3.70;;
24357;SDS011;13668;52.154;5.580;2022-08-21T09:40:30;6.60;;;2.55;;
24357;SDS011;13668;52.154;5.580;2022-08-21T09:42:58;8.23;;;2.65;;
24357;SDS011;13668;52.154;5.580;2022-08-21T09:45:25;12.20;;;3.17;;
24357;SDS011;13668;52.154;5.580;2022-08-21T09:47:51;7.28;;;2.20;;
24357;SDS011;13668;52.154;5.580;2022-08-21T09:50:19;4.78;;;1.98;;
24357;SDS011;13668;52.154;5.580;2022-08-21T09:52:48;6.85;;;2.00;;
24357;SDS011;13668;52.154;5.580;2022-08-21T09:55:16;7.45;;;2.03;;
24357;SDS011;13668;52.154;5.580;2022-08-21T09:58:03;8.55;;;2.03;;
24357;SDS011;13668;52.154;5.580;2022-08-21T10:00:31;3.80;;;1.40;;
24357;SDS011;13668;52.154;5.580;2022-08-21T10:03:11;7.10;;;1.42;;
24357;SDS011;13668;52.154;5.580;2022-08-21T10:05:38;6.53;;;1.58;;
24357;SDS011;13668;52.154;5.580;2022-08-21T10:08:04;8.45;;;1.77;;
24357;SDS011;13668;52.154;5.580;2022-08-21T10:10:32;6.50;;;1.90;;
24357;SDS011;13668;52.154;5.580;2022-08-21T10:13:12;7.82;;;1.70;;
24357;SDS011;13668;52.154;5.580;2022-08-21T10:15:46;3.78;;;1.23;;
24357;SDS011;13668;52.154;5.580;2022-08-21T10:23:57;7.78;;;1.60;;
24357;SDS011;13668;52.154;5.580;2022-08-21T10:26:35;4.82;;;1.38;;
24357;SDS011;13668;52.154;5.580;2022-08-21T10:29:21;6.43;;;1.95;;
24357;SDS011;13668;52.154;5.580;2022-08-21T10:37:41;7.03;;;1.40;;
24357;SDS011;13668;52.154;5.580;2022-08-21T10:42:38;6.95;;;1.60;;
24357;SDS011;13668;52.154;5.580;2022-08-21T10:47:48;4.05;;;1.50;;
24357;SDS011;13668;52.154;5.580;2022-08-21T10:53:02;6.18;;;1.90;;
24357;SDS011;13668;52.154;5.580;2022-08-21T10:55:32;4.50;;;1.58;;
24357;SDS011;13668;52.154;5.580;2022-08-21T10:58:11;5.47;;;1.75;;
24357;SDS011;13668;52.154;5.580;2022-08-21T11:00:47;6.70;;;1.55;;
24357;SDS011;13668;52.154;5.580;2022-08-21T11:03:21;6.75;;;2.20;;
24357;SDS011;13668;52.154;5.580;2022-08-21T11:08:43;4.10;;;1.45;;
24357;SDS011;13668;52.154;5.580;2022-08-21T11:11:27;6.72;;;1.33;;
24357;SDS011;13668;52.154;5.580;2022-08-21T11:14:00;5.85;;;1.60;;
24357;SDS011;13668;52.154;5.580;2022-08-21T11:16:36;5.07;;;1.50;;
24357;SDS011;13668;52.154;5.580;2022-08-21T11:19:17;3.92;;;1.35;;
24357;SDS011;13668;52.154;5.580;2022-08-21T11:24:30;3.40;;;1.15;;
24357;SDS011;13668;52.154;5.580;2022-08-21T11:27:03;2.78;;;1.40;;
24357;SDS011;13668;52.154;5.580;2022-08-21T11:29:33;5.45;;;1.33;;
24357;SDS011;13668;52.154;5.580;2022-08-21T11:32:03;3.92;;;1.40;;
24357;SDS011;13668;52.154;5.580;2022-08-21T11:37:19;6.45;;;1.20;;
24357;SDS011;13668;52.154;5.580;2022-08-21T11:39:51;3.53;;;1.38;;
24357;SDS011;13668;52.154;5.580;2022-08-21T11:47:22;5.22;;;1.35;;
24357;SDS011;13668;52.154;5.580;2022-08-21T11:52:45;5.60;;;1.50;;
24357;SDS011;13668;52.154;5.580;2022-08-21T11:55:19;5.35;;;1.20;;
24357;SDS011;13668;52.154;5.580;2022-08-21T11:57:55;5.43;;;1.67;;
24357;SDS011;13668;52.154;5.580;2022-08-21T12:00:24;3.95;;;1.63;;
24357;SDS011;13668;52.154;5.580;2022-08-21T12:02:53;6.72;;;1.88;;
24357;SDS011;13668;52.154;5.580;2022-08-21T12:05:22;3.95;;;1.85;;
24357;SDS011;13668;52.154;5.580;2022-08-21T12:07:59;5.28;;;1.58;;
24357;SDS011;13668;52.154;5.580;2022-08-21T12:10:30;3.38;;;1.45;;
24357;SDS011;13668;52.154;5.580;2022-08-21T12:13:05;5.07;;;1.80;;
24357;SDS011;13668;52.154;5.580;2022-08-21T12:15:41;3.72;;;1.30;;
24357;SDS011;13668;52.154;5.580;2022-08-21T12:21:27;4.88;;;1.50;;
24357;SDS011;13668;52.154;5.580;2022-08-21T12:26:56;3.78;;;1.10;;
24357;SDS011;13668;52.154;5.580;2022-08-21T12:29:32;5.38;;;1.60;;
24357;SDS011;13668;52.154;5.580;2022-08-21T12:34:48;5.30;;;1.63;;
24357;SDS011;13668;52.154;5.580;2022-08-21T12:40:00;6.20;;;1.75;;
24357;SDS011;13668;52.154;5.580;2022-08-21T12:45:28;4.05;;;1.77;;
24357;SDS011;13668;52.154;5.580;2022-08-21T12:50:44;5.40;;;1.77;;
24357;SDS011;13668;52.154;5.580;2022-08-21T12:53:12;4.47;;;1.83;;
24357;SDS011;13668;52.154;5.580;2022-08-21T12:55:51;4.05;;;1.65;;
24357;SDS011;13668;52.154;5.580;2022-08-21T12:58:23;4.82;;;1.98;;
24357;SDS011;13668;52.154;5.580;2022-08-21T13:00:50;4.40;;;1.90;;
24357;SDS011;13668;52.154;5.580;2022-08-21T13:03:18;7.97;;;2.83;;
24357;SDS011;13668;52.154;5.580;2022-08-21T13:05:44;6.53;;;2.05;;
24357;SDS011;13668;52.154;5.580;2022-08-21T13:08:11;3.85;;;1.83;;
24357;SDS011;13668;52.154;5.580;2022-08-21T13:10:41;2.33;;;1.50;;
24357;SDS011;13668;52.154;5.580;2022-08-21T13:13:12;6.35;;;1.77;;
24357;SDS011;13668;52.154;5.580;2022-08-21T13:15:42;3.25;;;1.70;;
24357;SDS011;13668;52.154;5.580;2022-08-21T13:18:19;4.50;;;1.65;;
24357;SDS011;13668;52.154;5.580;2022-08-21T13:21:01;5.70;;;1.77;;
24357;SDS011;13668;52.154;5.580;2022-08-21T13:23:30;7.07;;;1.98;;
24357;SDS011;13668;52.154;5.580;2022-08-21T13:25:56;3.00;;;1.45;;
24357;SDS011;13668;52.154;5.580;2022-08-21T13:28:23;3.80;;;1.48;;
24357;SDS011;13668;52.154;5.580;2022-08-21T13:30:53;8.30;;;1.60;;
24357;SDS011;13668;52.154;5.580;2022-08-21T13:33:29;6.78;;;1.45;;
24357;SDS011;13668;52.154;5.580;2022-08-21T13:36:01;3.70;;;1.38;;
24357;SDS011;13668;52.154;5.580;2022-08-21T13:38:47;3.60;;;1.52;;
24357;SDS011;13668;52.154;5.580;2022-08-21T13:43:47;2.05;;;1.20;;
24357;SDS011;13668;52.154;5.580;2022-08-21T13:46:14;3.15;;;1.42;;
24357;SDS011;13668;52.154;5.580;2022-08-21T13:48:40;6.40;;;2.05;;
24357;SDS011;13668;52.154;5.580;2022-08-21T13:51:07;6.18;;;1.90;;
24357;SDS011;13668;52.154;5.580;2022-08-21T13:53:35;8.27;;;2.10;;
24357;SDS011;13668;52.154;5.580;2022-08-21T13:56:23;3.60;;;1.70;;
24357;SDS011;13668;52.154;5.580;2022-08-21T13:58:50;7.70;;;1.98;;
24357;SDS011;13668;52.154;5.580;2022-08-21T14:04:02;4.07;;;1.90;;
24357;SDS011;13668;52.154;5.580;2022-08-21T14:06:32;6.72;;;1.90;;
24357;SDS011;13668;52.154;5.580;2022-08-21T14:08:59;8.32;;;2.33;;
24357;SDS011;13668;52.154;5.580;2022-08-21T14:11:27;4.82;;;1.52;;
24357;SDS011;13668;52.154;5.580;2022-08-21T14:13:57;7.15;;;2.00;;
24357;SDS011;13668;52.154;5.580;2022-08-21T14:16:25;5.95;;;1.98;;
24357;SDS011;13668;52.154;5.580;2022-08-21T14:18:53;5.30;;;1.40;;
24357;SDS011;13668;52.154;5.580;2022-08-21T14:21:30;4.63;;;1.65;;
24357;SDS011;13668;52.154;5.580;2022-08-21T14:24:04;4.60;;;1.25;;
24357;SDS011;13668;52.154;5.580;2022-08-21T14:26:31;4.13;;;1.20;;
24357;SDS011;13668;52.154;5.580;2022-08-21T14:29:01;5.40;;;1.48;;
24357;SDS011;13668;52.154;5.580;2022-08-21T14:31:30;5.40;;;1.30;;
24357;SDS011;13668;52.154;5.580;2022-08-21T14:33:59;3.83;;;1.50;;
24357;SDS011;13668;52.154;5.580;2022-08-21T14:36:25;3.28;;;1.20;;
24357;SDS011;13668;52.154;5.580;2022-08-21T14:38:51;3.42;;;1.48;;
24357;SDS011;13668;52.154;5.580;2022-08-21T14:41:19;4.47;;;1.38;;
24357;SDS011;13668;52.154;5.580;2022-08-21T14:43:47;5.50;;;1.52;;
24357;SDS011;13668;52.154;5.580;2022-08-21T14:46:14;2.83;;;2.00;;
24357;SDS011;13668;52.154;5.580;2022-08-21T14:48:44;3.38;;;1.70;;
24357;SDS011;13668;52.154;5.580;2022-08-21T14:51:11;4.45;;;1.60;;
24357;SDS011;13668;52.154;5.580;2022-08-21T14:53:37;4.57;;;2.55;;
24357;SDS011;13668;52.154;5.580;2022-08-21T14:56:03;4.43;;;1.85;;
24357;SDS011;13668;52.154;5.580;2022-08-21T14:58:29;4.18;;;1.80;;
24357;SDS011;13668;52.154;5.580;2022-08-21T15:00:56;2.58;;;1.40;;
24357;SDS011;13668;52.154;5.580;2022-08-21T15:03:23;5.85;;;2.00;;
24357;SDS011;13668;52.154;5.580;2022-08-21T15:05:49;6.97;;;1.77;;
24357;SDS011;13668;52.154;5.580;2022-08-21T15:08:15;4.05;;;1.70;;
24357;SDS011;13668;52.154;5.580;2022-08-21T15:10:41;4.30;;;1.92;;
24357;SDS011;13668;52.154;5.580;2022-08-21T15:13:07;4.22;;;1.70;;
24357;SDS011;13668;52.154;5.580;2022-08-21T15:15:35;7.72;;;1.75;;
24357;SDS011;13668;52.154;5.580;2022-08-21T15:18:02;4.55;;;1.70;;
24357;SDS011;13668;52.154;5.580;2022-08-21T15:20:28;8.25;;;2.00;;
24357;SDS011;13668;52.154;5.580;2022-08-21T15:22:54;5.78;;;1.38;;
24357;SDS011;13668;52.154;5.580;2022-08-21T15:25:20;5.65;;;2.15;;
24357;SDS011;13668;52.154;5.580;2022-08-21T15:27:56;4.20;;;1.80;;
24357;SDS011;13668;52.154;5.580;2022-08-21T15:30:22;4.20;;;1.55;;
24357;SDS011;13668;52.154;5.580;2022-08-21T15:32:48;6.38;;;1.33;;
24357;SDS011;13668;52.154;5.580;2022-08-21T15:35:17;4.13;;;1.60;;
24357;SDS011;13668;52.154;5.580;2022-08-21T15:37:43;5.55;;;1.80;;
24357;SDS011;13668;52.154;5.580;2022-08-21T15:40:09;6.05;;;1.83;;
24357;SDS011;13668;52.154;5.580;2022-08-21T15:42:37;2.65;;;1.40;;
24357;SDS011;13668;52.154;5.580;2022-08-21T15:45:03;5.03;;;1.60;;
24357;SDS011;13668;52.154;5.580;2022-08-21T15:47:33;5.40;;;1.88;;
24357;SDS011;13668;52.154;5.580;2022-08-21T15:49:59;5.40;;;1.58;;
24357;SDS011;13668;52.154;5.580;2022-08-21T15:52:26;4.15;;;1.42;;
24357;SDS011;13668;52.154;5.580;2022-08-21T15:54:52;5.82;;;1.65;;
24357;SDS011;13668;52.154;5.580;2022-08-21T15:57:21;3.85;;;1.83;;